createdAt,value
2022-11-16T00:12:41.730Z,1004
2022-11-16T00:43:49.428Z,1004
2022-11-16T01:14:57.479Z,1004
2022-11-16T01:46:00.656Z,1005
2022-11-16T02:17:05.451Z,1004
2022-11-16T02:48:12.556Z,1005
2022-11-16T03:19:16.192Z,1005
2022-11-16T03:50:21.820Z,1005
2022-11-16T04:21:26.305Z,1005
2022-11-16T04:52:34.998Z,1005
2022-11-16T05:23:40.801Z,1005
2022-11-16T05:54:50.008Z,1005
2022-11-16T06:56:57.697Z,1006
2022-11-16T07:28:06.759Z,1006
2022-11-16T07:59:14.041Z,1006
2022-11-16T08:30:17.649Z,1006
2022-11-16T09:01:26.133Z,1006
2022-11-16T09:32:34.729Z,1006
2022-11-16T10:03:40.313Z,1006
2022-11-16T10:34:46.006Z,1006
2022-11-16T11:05:47.997Z,1006
2022-11-16T11:36:53.169Z,1005
2022-11-16T12:07:56.258Z,1005
2022-11-16T12:38:57.895Z,1005
2022-11-16T13:10:04.502Z,1004
2022-11-16T13:41:09.691Z,1004
2022-11-16T14:12:16.558Z,1004
2022-11-16T14:43:24.833Z,1004
2022-11-16T15:14:31.134Z,1003
2022-11-16T15:45:35.273Z,1003
2022-11-16T16:16:44.923Z,1003
2022-11-16T16:47:49.065Z,1003
2022-11-16T17:18:55.124Z,1003
2022-11-16T17:49:59.381Z,1002
2022-11-16T18:21:06.916Z,1001
2022-11-16T18:52:10.617Z,1001
2022-11-16T19:23:13.066Z,1002
2022-11-16T19:54:19.978Z,1001
2022-11-16T20:25:26.485Z,1001
2022-11-16T20:56:30.640Z,1001
2022-11-16T21:27:34.300Z,1001
2022-11-16T21:58:36.357Z,1000
2022-11-16T22:29:40.458Z,1000
2022-11-16T23:00:47.411Z,999
2022-11-16T23:31:55.037Z,999
